createdAt,value
2023-04-17T00:00:38.059Z,100.00
2023-04-17T00:01:43.082Z,100.00
2023-04-17T00:02:45.367Z,100.00
2023-04-17T00:03:52.833Z,100.00
2023-04-17T00:04:55.537Z,100.00
2023-04-17T00:06:00.309Z,100.00
2023-04-17T00:07:03.561Z,100.00
2023-04-17T00:08:08.577Z,100.00
2023-04-17T00:09:11.419Z,100.00
2023-04-17T00:10:16.816Z,100.00
2023-04-17T00:11:19.124Z,100.00
2023-04-17T00:12:23.759Z,100.00
2023-04-17T00:13:25.820Z,100.00
2023-04-17T00:14:33.063Z,100.00
2023-04-17T00:15:35.130Z,100.00
2023-04-17T00:16:39.798Z,100.00
2023-04-17T00:17:41.855Z,100.00
2023-04-17T00:18:46.590Z,100.00
2023-04-17T00:19:48.809Z,100.00
2023-04-17T00:20:53.793Z,100.00
2023-04-17T00:21:58.443Z,100.00
2023-04-17T00:23:00.581Z,100.00
2023-04-17T00:24:05.234Z,100.00
2023-04-17T00:25:10.602Z,100.00
2023-04-17T00:26:15.513Z,100.00
2023-04-17T00:27:17.593Z,100.00
2023-04-17T00:28:22.238Z,100.00
2023-04-17T00:29:24.451Z,100.00
2023-04-17T00:30:31.713Z,100.00
2023-04-17T00:31:33.772Z,100.00
2023-04-17T00:32:38.584Z,100.00
2023-04-17T00:33:40.656Z,100.00
2023-04-17T00:34:45.270Z,100.00
2023-04-17T00:35:47.359Z,100.00
2023-04-17T00:36:51.953Z,100.00
2023-04-17T00:37:53.975Z,100.00
2023-04-17T00:38:58.594Z,100.00
2023-04-17T00:40:00.766Z,100.00
2023-04-17T00:41:05.438Z,100.00
2023-04-17T00:42:07.484Z,100.00
2023-04-17T00:43:12.112Z,100.00
2023-04-17T00:44:14.215Z,100.00
2023-04-17T00:47:13.402Z,100.00
2023-04-17T00:48:16.944Z,100.00
2023-04-17T00:49:22.922Z,100.00
2023-04-17T00:50:25.452Z,100.00
2023-04-17T00:51:30.473Z,100.00
2023-04-17T00:52:32.611Z,100.00
2023-04-17T00:53:38.280Z,100.00
2023-04-17T00:54:40.702Z,100.00
2023-04-17T00:55:46.597Z,100.00
2023-04-17T00:56:50.694Z,100.00
2023-04-17T00:57:55.375Z,100.00
2023-04-17T00:58:57.965Z,100.00
2023-04-17T01:00:02.715Z,100.00
2023-04-17T01:01:05.265Z,100.00
2023-04-17T01:02:10.113Z,100.00
2023-04-17T01:03:38.288Z,100.00
2023-04-17T01:04:40.665Z,100.00
2023-04-17T01:05:46.259Z,100.00
2023-04-17T01:06:48.340Z,100.00
2023-04-17T01:07:52.987Z,100.00
2023-04-17T01:08:55.928Z,100.00
2023-04-17T01:10:00.699Z,100.00
2023-04-17T01:11:02.733Z,100.00
2023-04-17T01:12:23.438Z,100.00
2023-04-17T01:13:26.231Z,100.00
2023-04-17T01:14:30.912Z,100.00
2023-04-17T01:15:33.110Z,100.00
2023-04-17T01:16:40.466Z,100.00
2023-04-17T01:17:42.592Z,100.00
2023-04-17T01:18:50.383Z,100.00
2023-04-17T01:19:52.965Z,100.00
2023-04-17T01:20:57.572Z,100.00
2023-04-17T01:21:59.725Z,100.00
2023-04-17T01:23:04.951Z,100.00
2023-04-17T01:24:11.235Z,100.00
2023-04-17T01:25:15.857Z,100.00
2023-04-17T01:26:19.671Z,100.00
2023-04-17T01:27:25.066Z,100.00
2023-04-17T01:28:27.083Z,100.00
2023-04-17T01:29:31.753Z,100.00
2023-04-17T01:30:33.833Z,100.00
2023-04-17T01:31:38.482Z,100.00
2023-04-17T01:32:40.563Z,100.00
2023-04-17T01:33:45.341Z,100.00
2023-04-17T01:34:47.455Z,100.00
2023-04-17T01:35:52.132Z,100.00
2023-04-17T01:36:54.332Z,100.00
2023-04-17T01:37:59.007Z,100.00
2023-04-17T01:39:01.205Z,100.00
2023-04-17T01:40:41.562Z,100.00
2023-04-17T01:41:46.218Z,100.00
2023-04-17T01:42:50.875Z,100.00
2023-04-17T01:43:52.934Z,100.00
2023-04-17T01:44:57.554Z,100.00
2023-04-17T01:45:59.709Z,100.00
2023-04-17T01:47:04.378Z,100.00
2023-04-17T01:48:06.814Z,100.00
2023-04-17T01:49:11.905Z,100.00
2023-04-17T01:50:14.422Z,100.00
2023-04-17T01:51:19.050Z,100.00
2023-04-17T01:52:21.340Z,100.00
2023-04-17T01:53:26.304Z,100.00
2023-04-17T01:54:28.366Z,100.00
2023-04-17T01:55:33.059Z,100.00
2023-04-17T01:56:35.191Z,100.00
2023-04-17T01:57:42.524Z,100.00
2023-04-17T01:58:44.546Z,100.00
2023-04-17T01:59:49.221Z,100.00
2023-04-17T02:00:52.168Z,100.00
2023-04-17T02:01:59.285Z,100.00
2023-04-17T02:03:01.553Z,100.00
2023-04-17T02:04:06.375Z,100.00
2023-04-17T02:05:08.711Z,100.00
2023-04-17T02:06:13.342Z,100.00
2023-04-17T02:07:15.416Z,100.00
2023-04-17T02:08:20.017Z,100.00
2023-04-17T02:09:22.649Z,100.00
2023-04-17T02:10:27.395Z,100.00
2023-04-17T02:11:29.537Z,100.00
2023-04-17T02:12:34.396Z,100.00
2023-04-17T02:13:39.027Z,100.00
2023-04-17T02:14:43.633Z,100.00
2023-04-17T02:15:45.973Z,100.00
2023-04-17T02:16:50.681Z,100.00
2023-04-17T02:17:52.754Z,100.00
2023-04-17T02:18:57.819Z,100.00
2023-04-17T02:19:59.868Z,100.00
2023-04-17T02:21:04.496Z,100.00
2023-04-17T02:22:06.533Z,100.00
2023-04-17T02:23:12.342Z,100.00
2023-04-17T02:24:14.469Z,100.00
2023-04-17T02:25:19.332Z,100.00
2023-04-17T02:26:21.944Z,100.00
2023-04-17T02:27:27.248Z,100.00
2023-04-17T02:28:29.288Z,100.00
2023-04-17T02:29:36.597Z,100.00
2023-04-17T02:30:38.650Z,100.00
2023-04-17T02:31:44.176Z,100.00
2023-04-17T02:32:46.453Z,100.00
2023-04-17T02:33:51.077Z,100.00
2023-04-17T02:34:54.462Z,100.00
2023-04-17T02:35:59.193Z,100.00
2023-04-17T02:37:01.597Z,100.00
2023-04-17T02:38:06.301Z,100.00
2023-04-17T02:39:08.341Z,100.00
2023-04-17T02:40:13.402Z,100.00
2023-04-17T02:41:15.696Z,100.00
2023-04-17T02:42:20.368Z,100.00
2023-04-17T02:43:22.765Z,100.00
2023-04-17T02:44:27.415Z,100.00
2023-04-17T02:45:32.308Z,100.00
2023-04-17T02:46:36.998Z,100.00
2023-04-17T02:47:39.464Z,100.00
2023-04-17T02:48:44.116Z,100.00
2023-04-17T02:49:46.113Z,100.00
2023-04-17T02:50:50.688Z,100.00
2023-04-17T02:51:52.784Z,100.00
2023-04-17T02:52:58.084Z,100.00
2023-04-17T02:54:00.120Z,100.00
2023-04-17T02:55:04.736Z,100.00
2023-04-17T02:56:07.169Z,100.00
2023-04-17T02:57:11.783Z,100.00
2023-04-17T02:58:13.936Z,100.00
2023-04-17T02:59:18.721Z,100.00
2023-04-17T03:00:21.160Z,100.00
2023-04-17T03:01:28.481Z,100.00
2023-04-17T03:02:30.868Z,100.00
2023-04-17T03:03:35.807Z,100.00
2023-04-17T03:04:39.211Z,100.00
2023-04-17T03:05:43.970Z,100.00
2023-04-17T03:06:46.006Z,100.00
2023-04-17T03:07:50.672Z,100.00
2023-04-17T03:08:56.005Z,100.00
2023-04-17T03:09:58.033Z,100.00
2023-04-17T03:11:02.689Z,100.00
2023-04-17T03:12:06.013Z,100.00
2023-04-17T03:13:10.620Z,100.00
2023-04-17T03:14:12.612Z,100.00
2023-04-17T03:15:17.318Z,100.00
2023-04-17T03:16:19.362Z,100.00
2023-04-17T03:17:26.648Z,100.00
2023-04-17T03:18:28.706Z,100.00
2023-04-17T03:19:33.387Z,100.00
2023-04-17T03:20:38.031Z,100.00
2023-04-17T03:21:40.096Z,100.00
2023-04-17T03:22:44.729Z,100.00
2023-04-17T03:23:46.742Z,100.00
2023-04-17T03:24:51.318Z,100.00
2023-04-17T03:25:53.675Z,100.00
2023-04-17T03:26:58.267Z,100.00
2023-04-17T03:28:00.273Z,100.00
2023-04-17T03:29:04.853Z,100.00
2023-04-17T03:30:08.848Z,100.00
2023-04-17T03:31:13.456Z,100.00
2023-04-17T03:32:16.062Z,100.00
2023-04-17T03:33:23.468Z,100.00
2023-04-17T03:34:26.378Z,100.00
2023-04-17T03:35:30.938Z,100.00
2023-04-17T03:36:35.624Z,100.00
2023-04-17T03:37:37.652Z,100.00
2023-04-17T03:38:42.276Z,100.00
2023-04-17T03:39:44.295Z,100.00
2023-04-17T03:40:48.964Z,100.00
2023-04-17T03:41:51.061Z,100.00
2023-04-17T03:42:56.099Z,100.00
2023-04-17T03:43:58.218Z,100.00
2023-04-17T03:45:03.615Z,100.00
2023-04-17T03:46:05.881Z,100.00
2023-04-17T03:47:10.556Z,100.00
2023-04-17T03:48:12.526Z,100.00
2023-04-17T03:49:19.718Z,100.00
2023-04-17T03:50:21.699Z,100.00
2023-04-17T03:51:27.501Z,100.00
2023-04-17T03:52:29.536Z,100.00
2023-04-17T03:53:34.200Z,100.00
2023-04-17T03:54:36.338Z,100.00
2023-04-17T03:55:40.979Z,100.00
2023-04-17T03:56:42.958Z,100.00
2023-04-17T03:57:48.683Z,100.00
2023-04-17T03:58:50.886Z,100.00
2023-04-17T03:59:55.498Z,100.00
2023-04-17T04:00:59.053Z,100.00
2023-04-17T04:02:03.685Z,100.00
2023-04-17T04:03:06.107Z,100.00
2023-04-17T04:04:11.148Z,100.00
2023-04-17T04:05:15.966Z,100.00
2023-04-17T04:06:20.673Z,100.00
2023-04-17T04:07:22.675Z,100.00
2023-04-17T04:08:27.418Z,100.00
2023-04-17T04:09:29.477Z,100.00
2023-04-17T04:10:35.260Z,100.00
2023-04-17T04:11:37.252Z,100.00
2023-04-17T04:12:41.846Z,100.00
2023-04-17T04:13:43.864Z,100.00
2023-04-17T04:14:48.459Z,100.00
2023-04-17T04:15:50.545Z,100.00
2023-04-17T04:16:55.649Z,100.00
2023-04-17T04:17:57.723Z,100.00
2023-04-17T04:19:02.444Z,100.00
2023-04-17T04:20:05.706Z,100.00
2023-04-17T04:21:12.898Z,100.00
2023-04-17T04:22:14.997Z,100.00
2023-04-17T04:23:21.251Z,100.00
2023-04-17T04:24:23.898Z,100.00
2023-04-17T04:25:29.021Z,100.00
2023-04-17T04:26:31.434Z,100.00
2023-04-17T04:27:36.054Z,100.00
2023-04-17T04:28:38.354Z,100.00
2023-04-17T04:29:48.962Z,100.00
2023-04-17T04:30:51.639Z,100.00
2023-04-17T04:31:56.335Z,100.00
2023-04-17T04:33:01.435Z,100.00
2023-04-17T04:34:06.564Z,100.00
2023-04-17T04:35:10.390Z,100.00
2023-04-17T04:36:21.124Z,100.00
2023-04-17T04:37:30.331Z,100.00
2023-04-17T04:38:34.941Z,100.00
2023-04-17T04:39:38.132Z,100.00
2023-04-17T04:40:50.105Z,100.00
2023-04-17T04:41:52.609Z,100.00
2023-04-17T04:42:57.298Z,100.00
2023-04-17T04:43:59.472Z,100.00
2023-04-17T04:45:04.103Z,100.00
2023-04-17T04:46:06.259Z,100.00
2023-04-17T04:47:10.997Z,100.00
2023-04-17T04:48:13.046Z,100.00
2023-04-17T04:49:17.636Z,100.00
2023-04-17T04:50:20.100Z,100.00
2023-04-17T04:51:27.340Z,100.00
2023-04-17T04:52:29.407Z,100.00
2023-04-17T04:53:33.973Z,100.00
2023-04-17T04:54:35.962Z,100.00
2023-04-17T04:55:40.522Z,100.00
2023-04-17T04:56:45.072Z,100.00
2023-04-17T04:57:49.790Z,100.00
2023-04-17T04:58:51.837Z,100.00
2023-04-17T04:59:56.678Z,100.00
2023-04-17T05:00:58.834Z,100.00
2023-04-17T05:02:03.690Z,100.00
2023-04-17T05:03:06.837Z,100.00
2023-04-17T05:04:11.597Z,100.00
2023-04-17T05:05:13.707Z,100.00
2023-04-17T05:06:18.472Z,100.00
2023-04-17T05:07:23.091Z,100.00
2023-04-17T05:08:28.124Z,100.00
2023-04-17T05:09:30.130Z,100.00
2023-04-17T05:10:34.766Z,100.00
2023-04-17T05:11:36.867Z,100.00
2023-04-17T05:12:41.797Z,100.00
2023-04-17T05:13:46.370Z,100.00
2023-04-17T05:14:48.359Z,100.00
2023-04-17T05:15:53.056Z,100.00
2023-04-17T05:16:55.844Z,100.00
2023-04-17T05:18:00.662Z,100.00
2023-04-17T05:19:02.728Z,100.00
2023-04-17T05:20:09.764Z,100.00
2023-04-17T05:21:11.783Z,100.00
2023-04-17T05:22:16.665Z,100.00
2023-04-17T05:23:23.014Z,100.00
2023-04-17T05:24:27.592Z,100.00
2023-04-17T05:25:29.628Z,100.00
2023-04-17T05:26:34.199Z,100.00
2023-04-17T05:27:36.175Z,100.00
2023-04-17T05:28:41.093Z,100.00
2023-04-17T05:29:43.146Z,100.00
2023-04-17T05:30:48.199Z,100.00
2023-04-17T05:31:50.533Z,100.00
2023-04-17T05:33:01.463Z,100.00
2023-04-17T05:34:03.613Z,100.00
2023-04-17T05:35:08.881Z,100.00
2023-04-17T05:36:11.004Z,100.00
2023-04-17T05:37:15.796Z,100.00
2023-04-17T05:38:23.069Z,100.00
2023-04-17T05:39:25.349Z,100.00
2023-04-17T05:40:29.982Z,100.00
2023-04-17T05:41:32.109Z,100.00
2023-04-17T05:42:36.779Z,100.00
2023-04-17T05:43:38.831Z,100.00
2023-04-17T05:44:43.443Z,100.00
2023-04-17T05:45:45.847Z,100.00
2023-04-17T05:46:50.561Z,100.00
2023-04-17T05:47:52.568Z,100.00
2023-04-17T05:48:57.272Z,100.00
2023-04-17T05:50:00.166Z,100.00
2023-04-17T05:51:04.819Z,100.00
2023-04-17T05:52:06.948Z,100.00
2023-04-17T05:53:11.698Z,100.00
2023-04-17T05:54:16.351Z,100.00
2023-04-17T05:55:21.802Z,100.00
2023-04-17T05:56:23.834Z,100.00
2023-04-17T05:57:28.694Z,100.00
2023-04-17T05:58:33.324Z,100.00
2023-04-17T05:59:35.429Z,100.00
2023-04-17T06:00:40.038Z,100.00
2023-04-17T06:01:43.793Z,100.00
2023-04-17T06:02:48.663Z,100.00
2023-04-17T06:03:51.245Z,100.00
2023-04-17T06:04:58.584Z,100.00
2023-04-17T06:06:03.598Z,100.00
2023-04-17T06:07:06.308Z,100.00
2023-04-17T06:08:11.072Z,100.00
2023-04-17T06:09:16.084Z,100.00
2023-04-17T06:10:20.985Z,100.00
2023-04-17T06:11:23.327Z,100.00
2023-04-17T06:12:28.112Z,100.00
2023-04-17T06:13:30.175Z,100.00
2023-04-17T06:14:34.869Z,100.00
2023-04-17T06:15:37.141Z,100.00
2023-04-17T06:16:41.782Z,100.00
2023-04-17T06:17:43.847Z,100.00
2023-04-17T06:18:48.530Z,100.00
2023-04-17T06:19:53.160Z,100.00
2023-04-17T06:20:55.560Z,100.00
2023-04-17T06:22:00.220Z,100.00
2023-04-17T06:23:02.322Z,100.00
2023-04-17T06:24:07.169Z,100.00
2023-04-17T06:25:11.924Z,100.00
2023-04-17T06:26:16.782Z,100.00
2023-04-17T06:27:18.838Z,100.00
2023-04-17T06:28:23.449Z,100.00
2023-04-17T06:29:25.584Z,100.00
2023-04-17T06:30:30.224Z,100.00
2023-04-17T06:31:32.480Z,100.00
2023-04-17T06:32:37.363Z,100.00
2023-04-17T06:33:39.420Z,100.00
2023-04-17T06:34:56.375Z,100.00
2023-04-17T06:36:03.627Z,100.00
2023-04-17T06:37:05.611Z,100.00
2023-04-17T06:38:10.227Z,100.00
2023-04-17T06:39:12.532Z,100.00
2023-04-17T06:40:20.112Z,100.00
2023-04-17T06:41:22.661Z,100.00
2023-04-17T06:42:28.297Z,100.00
2023-04-17T06:43:30.313Z,100.00
2023-04-17T06:44:34.984Z,100.00
2023-04-17T06:45:37.057Z,100.00
2023-04-17T06:46:41.695Z,100.00
2023-04-17T06:47:46.096Z,100.00
2023-04-17T06:48:52.400Z,100.00
2023-04-17T06:49:58.154Z,100.00
2023-04-17T06:51:00.125Z,100.00
2023-04-17T06:52:04.763Z,100.00
2023-04-17T06:53:07.053Z,100.00
2023-04-17T06:54:12.057Z,100.00
2023-04-17T06:55:19.632Z,100.00
2023-04-17T06:56:24.519Z,100.00
2023-04-17T06:57:26.576Z,100.00
2023-04-17T06:58:31.162Z,100.00
2023-04-17T06:59:36.228Z,100.00
2023-04-17T07:00:38.334Z,100.00
2023-04-17T07:01:43.119Z,100.00
2023-04-17T07:02:46.484Z,100.00
2023-04-17T07:03:51.311Z,100.00
2023-04-17T07:04:56.565Z,100.00
2023-04-17T07:06:01.180Z,100.00
2023-04-17T07:07:03.281Z,100.00
2023-04-17T07:08:08.757Z,100.00
2023-04-17T07:09:10.850Z,100.00
2023-04-17T07:10:16.204Z,100.00
2023-04-17T07:11:23.467Z,100.00
2023-04-17T07:12:25.488Z,100.00
2023-04-17T07:13:31.646Z,100.00
2023-04-17T07:14:36.457Z,100.00
2023-04-17T07:15:41.137Z,100.00
2023-04-17T07:16:43.306Z,100.00
2023-04-17T07:17:47.994Z,100.00
2023-04-17T07:18:52.984Z,100.00
2023-04-17T07:19:57.618Z,100.00
2023-04-17T07:21:02.913Z,100.00
2023-04-17T07:22:05.967Z,100.00
2023-04-17T07:23:10.629Z,100.00
2023-04-17T07:24:12.671Z,100.00
2023-04-17T07:25:17.231Z,100.00
2023-04-17T07:26:24.481Z,100.00
2023-04-17T07:27:26.933Z,100.00
2023-04-17T07:28:31.913Z,100.00
2023-04-17T07:29:36.612Z,100.00
2023-04-17T07:30:38.621Z,100.00
2023-04-17T07:31:43.290Z,100.00
2023-04-17T07:32:45.716Z,100.00
2023-04-17T07:33:50.779Z,100.00
2023-04-17T07:34:53.078Z,100.00
2023-04-17T07:35:57.701Z,100.00
2023-04-17T07:36:59.715Z,100.00
2023-04-17T07:38:04.449Z,100.00
2023-04-17T07:39:09.231Z,100.00
2023-04-17T07:40:14.846Z,100.00
2023-04-17T07:41:19.481Z,100.00
2023-04-17T07:42:24.138Z,100.00
2023-04-17T07:43:28.803Z,100.00
2023-04-17T07:44:30.870Z,100.00
2023-04-17T07:45:38.570Z,100.00
2023-04-17T07:46:45.364Z,100.00
2023-04-17T07:47:47.427Z,100.00
2023-04-17T07:48:52.032Z,100.00
2023-04-17T07:49:54.059Z,100.00
2023-04-17T07:50:58.646Z,100.00
2023-04-17T07:52:00.665Z,100.00
2023-04-17T07:53:05.600Z,100.00
2023-04-17T07:54:07.708Z,100.00
2023-04-17T07:55:12.673Z,100.00
2023-04-17T07:56:17.762Z,100.00
2023-04-17T07:57:22.372Z,100.00
2023-04-17T07:58:29.580Z,100.00
2023-04-17T07:59:34.402Z,100.00
2023-04-17T08:00:39.003Z,100.00
2023-04-17T08:01:43.669Z,100.00
2023-04-17T08:02:46.163Z,100.00
2023-04-17T08:03:51.903Z,100.00
2023-04-17T08:04:54.653Z,100.00
2023-04-17T08:05:59.319Z,100.00
2023-04-17T08:07:03.985Z,100.00
2023-04-17T08:08:06.104Z,100.00
2023-04-17T08:09:11.472Z,100.00
2023-04-17T08:10:13.689Z,100.00
2023-04-17T08:11:18.413Z,100.00
2023-04-17T08:12:20.831Z,100.00
2023-04-17T08:13:25.408Z,100.00
2023-04-17T08:14:30.106Z,100.00
2023-04-17T08:15:34.825Z,100.00
2023-04-17T08:16:39.512Z,100.00
2023-04-17T08:17:41.616Z,100.00
2023-04-17T08:18:46.218Z,100.00
2023-04-17T08:19:50.449Z,100.00
2023-04-17T08:20:55.868Z,100.00
2023-04-17T08:22:01.946Z,100.00
2023-04-17T08:23:07.388Z,100.00
2023-04-17T08:24:09.610Z,100.00
2023-04-17T08:25:15.291Z,100.00
2023-04-17T08:26:20.791Z,100.00
2023-04-17T08:27:22.780Z,100.00
2023-04-17T08:28:27.953Z,100.00
2023-04-17T08:29:32.581Z,100.00
2023-04-17T08:30:37.266Z,100.00
2023-04-17T08:31:40.639Z,100.00
2023-04-17T08:32:47.005Z,100.00
2023-04-17T08:33:49.109Z,100.00
2023-04-17T08:34:53.712Z,100.00
2023-04-17T08:35:58.293Z,100.00
2023-04-17T08:37:00.302Z,100.00
2023-04-17T08:38:04.903Z,100.00
2023-04-17T08:39:07.216Z,100.00
2023-04-17T08:40:13.471Z,100.00
2023-04-17T08:41:24.388Z,100.00
2023-04-17T08:42:30.357Z,100.00
2023-04-17T08:43:37.958Z,100.00
2023-04-17T08:44:42.717Z,100.00
2023-04-17T08:45:54.196Z,100.00
2023-04-17T08:46:57.384Z,100.00
2023-04-17T08:48:02.286Z,100.00
2023-04-17T08:49:04.602Z,100.00
2023-04-17T08:50:11.693Z,100.00
2023-04-17T08:51:16.785Z,100.00
2023-04-17T08:52:21.604Z,100.00
2023-04-17T08:53:26.331Z,100.00
2023-04-17T08:54:28.320Z,100.00
2023-04-17T08:55:33.105Z,100.00
2023-04-17T08:56:35.146Z,100.00
2023-04-17T08:57:56.747Z,100.00
2023-04-17T08:59:01.434Z,100.00
2023-04-17T09:00:12.452Z,100.00
2023-04-17T09:01:20.109Z,100.00
2023-04-17T09:02:23.240Z,100.00
2023-04-17T09:03:57.337Z,100.00
2023-04-17T09:05:02.605Z,100.00
2023-04-17T09:06:05.116Z,100.00
2023-04-17T09:07:11.320Z,100.00
2023-04-17T09:08:17.343Z,100.00
2023-04-17T09:09:19.431Z,100.00
2023-04-17T09:10:24.034Z,100.00
2023-04-17T09:11:30.558Z,100.00
2023-04-17T09:12:32.604Z,100.00
2023-04-17T09:13:42.556Z,100.00
2023-04-17T09:14:44.839Z,100.00
2023-04-17T09:16:09.251Z,100.00
2023-04-17T09:17:11.636Z,100.00
2023-04-17T09:18:34.983Z,100.00
2023-04-17T09:19:37.169Z,100.00
2023-04-17T09:20:52.676Z,100.00
2023-04-17T09:21:54.937Z,100.00
2023-04-17T09:23:05.401Z,100.00
2023-04-17T09:24:43.212Z,100.00
2023-04-17T09:25:47.840Z,100.00
2023-04-17T09:26:49.863Z,100.00
2023-04-17T09:27:54.538Z,100.00
2023-04-17T09:29:12.389Z,100.00
2023-04-17T09:30:15.211Z,100.00
2023-04-17T09:31:34.631Z,100.00
2023-04-17T09:32:36.904Z,100.00
2023-04-17T09:33:59.220Z,100.00
2023-04-17T09:35:06.246Z,100.00
2023-04-17T09:36:24.059Z,100.00
2023-04-17T09:37:27.332Z,100.00
2023-04-17T09:38:40.156Z,100.00
2023-04-17T09:39:58.226Z,100.00
2023-04-17T09:41:02.905Z,100.00
2023-04-17T09:42:06.435Z,100.00
2023-04-17T09:43:12.548Z,100.00
2023-04-17T09:44:25.978Z,100.00
2023-04-17T09:45:35.694Z,100.00
2023-04-17T09:46:45.843Z,100.00
2023-04-17T09:47:49.075Z,100.00
2023-04-17T09:48:54.973Z,100.00
2023-04-17T09:49:59.985Z,100.00
2023-04-17T09:51:02.478Z,100.00
2023-04-17T09:52:07.378Z,100.00
2023-04-17T09:53:12.064Z,100.00
2023-04-17T09:54:16.366Z,100.00
2023-04-17T09:55:24.215Z,100.00
2023-04-17T09:56:28.217Z,100.00
2023-04-17T09:57:34.005Z,100.00
2023-04-17T09:58:38.597Z,100.00
2023-04-17T09:59:41.962Z,100.00
2023-04-17T10:00:47.006Z,100.00
2023-04-17T10:01:54.386Z,100.00
2023-04-17T10:03:01.063Z,100.00
2023-04-17T10:04:04.749Z,100.00
2023-04-17T10:05:13.048Z,100.00
2023-04-17T10:06:15.852Z,100.00
2023-04-17T10:07:20.755Z,100.00
2023-04-17T10:08:23.141Z,100.00
2023-04-17T10:09:28.183Z,100.00
2023-04-17T10:10:35.004Z,100.00
2023-04-17T10:11:39.268Z,100.00
2023-04-17T10:12:44.243Z,100.00
2023-04-17T10:13:52.908Z,100.00
2023-04-17T10:14:57.875Z,100.00
2023-04-17T10:16:00.268Z,100.00
2023-04-17T10:17:25.363Z,100.00
2023-04-17T10:18:30.022Z,100.00
2023-04-17T10:19:33.607Z,100.00
2023-04-17T10:20:45.122Z,100.00
2023-04-17T10:21:50.912Z,100.00
2023-04-17T10:22:56.894Z,100.00
2023-04-17T10:23:59.616Z,100.00
2023-04-17T10:25:22.729Z,95.09
2023-04-17T10:26:45.234Z,85.28
2023-04-17T10:27:50.689Z,81.61
2023-04-17T10:28:58.037Z,83.73
2023-04-17T10:30:04.335Z,84.68
2023-04-17T10:31:09.021Z,84.77
2023-04-17T10:32:17.634Z,87.31
2023-04-17T10:33:27.490Z,86.65
2023-04-17T10:34:36.754Z,86.94
2023-04-17T10:35:41.525Z,85.41
2023-04-17T10:36:50.043Z,88.24
2023-04-17T10:38:12.738Z,88.48
2023-04-17T10:39:16.100Z,90.20
2023-04-17T10:40:23.497Z,94.62
2023-04-17T10:41:28.452Z,88.29
2023-04-17T10:42:30.948Z,88.39
2023-04-17T10:43:35.649Z,89.42
2023-04-17T10:44:39.745Z,90.59
2023-04-17T10:46:07.007Z,92.79
2023-04-17T10:48:28.404Z,93.32
2023-04-17T10:49:50.124Z,97.60
2023-04-17T10:50:57.511Z,93.79
2023-04-17T10:51:59.814Z,98.05
2023-04-17T10:53:04.498Z,99.06
2023-04-17T10:54:10.659Z,96.20
2023-04-17T10:55:20.908Z,97.26
2023-04-17T10:56:28.313Z,100.00
2023-04-17T10:58:05.013Z,100.00
2023-04-17T10:59:08.610Z,98.30
2023-04-17T11:00:18.284Z,99.05
2023-04-17T11:01:22.978Z,100.00
2023-04-17T11:02:37.814Z,98.47
2023-04-17T11:03:42.821Z,93.14
2023-04-17T11:04:47.577Z,89.47
2023-04-17T11:05:49.839Z,92.02
2023-04-17T11:06:55.958Z,90.02
2023-04-17T11:07:58.280Z,88.40
2023-04-17T11:09:04.664Z,81.97
2023-04-17T11:10:07.520Z,76.21
2023-04-17T11:11:13.491Z,75.13
2023-04-17T11:12:15.772Z,72.89
2023-04-17T11:13:20.379Z,79.24
2023-04-17T11:14:23.655Z,75.67
2023-04-17T11:17:29.653Z,78.63
2023-04-17T11:18:34.546Z,87.88
2023-04-17T11:19:39.578Z,89.39
2023-04-17T11:20:45.294Z,90.07
2023-04-17T11:21:49.386Z,95.52
2023-04-17T11:23:25.215Z,99.52
2023-04-17T11:24:31.410Z,100.00
2023-04-17T11:25:34.804Z,100.00
2023-04-17T11:26:45.417Z,100.00
2023-04-17T11:27:47.476Z,100.00
2023-04-17T11:28:52.187Z,100.00
2023-04-17T11:29:54.219Z,100.00
2023-04-17T11:30:58.949Z,100.00
2023-04-17T11:32:01.469Z,100.00
2023-04-17T11:33:07.947Z,100.00
2023-04-17T11:34:11.333Z,100.00
2023-04-17T11:35:18.764Z,100.00
2023-04-17T11:36:24.948Z,100.00
2023-04-17T11:37:29.660Z,100.00
2023-04-17T11:38:34.267Z,100.00
2023-04-17T11:39:36.511Z,100.00
2023-04-17T11:40:46.634Z,100.00
2023-04-17T11:41:51.456Z,100.00
2023-04-17T11:42:53.514Z,100.00
2023-04-17T11:43:58.280Z,100.00
2023-04-17T11:45:04.624Z,100.00
2023-04-17T11:46:09.861Z,100.00
2023-04-17T11:47:12.144Z,100.00
2023-04-17T11:48:19.796Z,100.00
2023-04-17T11:49:26.056Z,100.00
2023-04-17T11:50:34.261Z,100.00
2023-04-17T11:51:39.651Z,100.00
2023-04-17T11:52:41.690Z,100.00
2023-04-17T11:53:49.289Z,100.00
2023-04-17T11:55:00.749Z,100.00
2023-04-17T11:56:28.484Z,100.00
2023-04-17T11:57:40.968Z,100.00
2023-04-17T11:58:50.008Z,100.00
2023-04-17T11:59:54.617Z,100.00
2023-04-17T12:01:07.987Z,100.00
2023-04-17T12:03:37.337Z,100.00
2023-04-17T12:04:42.586Z,100.00
2023-04-17T12:06:01.323Z,100.00
2023-04-17T12:07:07.724Z,100.00
2023-04-17T12:08:09.818Z,100.00
2023-04-17T12:09:24.401Z,100.00
2023-04-17T12:10:42.370Z,100.00
2023-04-17T12:11:47.106Z,100.00
2023-04-17T12:12:49.268Z,100.00
2023-04-17T12:13:54.202Z,100.00
2023-04-17T12:14:56.302Z,100.00
2023-04-17T12:16:01.031Z,100.00
2023-04-17T12:17:03.148Z,100.00
2023-04-17T12:18:09.530Z,100.00
2023-04-17T12:19:16.840Z,100.00
2023-04-17T12:20:19.035Z,100.00
2023-04-17T12:21:29.332Z,100.00
2023-04-17T12:22:31.418Z,100.00
2023-04-17T12:23:36.050Z,100.00
2023-04-17T12:24:38.078Z,100.00
2023-04-17T12:25:42.742Z,100.00
2023-04-17T12:26:46.990Z,100.00
2023-04-17T12:27:51.637Z,100.00
2023-04-17T12:28:56.367Z,100.00
2023-04-17T12:29:58.371Z,100.00
2023-04-17T12:31:03.016Z,100.00
2023-04-17T12:32:05.485Z,100.00
2023-04-17T12:33:10.197Z,100.00
2023-04-17T12:34:12.811Z,100.00
2023-04-17T12:35:19.152Z,100.00
2023-04-17T12:36:26.827Z,100.00
2023-04-17T12:37:29.165Z,100.00
2023-04-17T12:38:34.357Z,100.00
2023-04-17T12:39:36.350Z,100.00
2023-04-17T12:40:43.441Z,100.00
2023-04-17T12:41:48.098Z,100.00
2023-04-17T12:42:50.234Z,100.00
2023-04-17T12:43:54.872Z,100.00
2023-04-17T12:44:57.032Z,100.00
2023-04-17T12:46:01.687Z,100.00
2023-04-17T12:47:03.919Z,100.00
2023-04-17T12:48:09.914Z,100.00
2023-04-17T12:49:12.203Z,100.00
2023-04-17T12:50:16.964Z,100.00
2023-04-17T12:51:21.892Z,100.00
2023-04-17T12:52:26.751Z,100.00
2023-04-17T12:53:31.358Z,100.00
2023-04-17T12:54:33.390Z,100.00
2023-04-17T12:55:38.799Z,100.00
2023-04-17T12:56:43.947Z,100.00
2023-04-17T12:57:49.034Z,100.00
2023-04-17T12:58:53.711Z,100.00
2023-04-17T12:59:56.016Z,100.00
2023-04-17T13:01:00.932Z,100.00
2023-04-17T13:02:03.081Z,100.00
2023-04-17T13:03:08.962Z,100.00
2023-04-17T13:04:11.358Z,100.00
2023-04-17T13:05:16.325Z,100.00
2023-04-17T13:06:21.701Z,100.00
2023-04-17T13:07:28.954Z,100.00
2023-04-17T13:08:33.595Z,100.00
2023-04-17T13:09:35.671Z,100.00
2023-04-17T13:10:40.534Z,100.00
2023-04-17T13:11:42.529Z,100.00
2023-04-17T13:12:47.215Z,100.00
2023-04-17T13:13:49.202Z,100.00
2023-04-17T13:14:54.033Z,100.00
2023-04-17T13:15:58.690Z,100.00
2023-04-17T13:17:01.164Z,100.00
2023-04-17T13:18:05.998Z,100.00
2023-04-17T13:19:08.116Z,97.66
2023-04-17T13:20:14.063Z,99.04
2023-04-17T13:21:16.059Z,100.00
2023-04-17T13:22:21.184Z,95.61
2023-04-17T13:23:25.906Z,96.01
2023-04-17T13:24:30.943Z,92.35
2023-04-17T13:25:35.841Z,97.85
2023-04-17T13:26:41.221Z,97.95
2023-04-17T13:27:46.091Z,98.49
2023-04-17T13:28:48.234Z,100.00
2023-04-17T13:29:52.886Z,100.00
2023-04-17T13:30:54.982Z,100.00
2023-04-17T13:31:59.774Z,100.00
2023-04-17T13:33:04.475Z,100.00
2023-04-17T13:34:07.244Z,100.00
2023-04-17T13:35:13.725Z,100.00
2023-04-17T13:36:15.834Z,100.00
2023-04-17T13:37:20.637Z,100.00
2023-04-17T13:38:25.293Z,100.00
2023-04-17T13:39:30.162Z,100.00
2023-04-17T13:40:32.218Z,100.00